Search for airport 
image banner adimage banner adimage banner ad
image banner ad

NV16 - Lackerman Ranch Airport

Located in Gerlach, United States

ICAO - NV16, IATA -

Data provided by Airmate  

General information

Coordinates: N35°58'2" W114°50'38"
Elevation is 2394 feet MSL.
 
View others Airports in Nevada

Operational data

Special qualification required
Current time UTC:
Current local time:
Weather at : KBVU - Boulder City Muni ( 3 km )
METAR: KBVU 092155Z AUTO VRB04KT 10SM CLR 29/M14 A2979 RMK AO2
View NOTAMs / SUP AIP / TFR affecting this airport [VIEW]
Communications frequencies: [VIEW]

Runways:

Airport contact information

Address: Gerlach United States

Satellite view of NV16